Terminal Aerodrome Forecast
Issued by NWS

Home | Current Version | Previous Version | Graphics & Text | Print | Product List | Glossary Off
Versions: 1 2 3 4 5 6 7 8 9 10 11 12 13 14 15 16 17 18 19

000
FTUS43 KMPX 310500
TAFRWF
TAF
KRWF 310530Z 3106/0106 13005KT P6SM FEW200
     FM311000 16010KT P6SM VCSH SCT050 BKN090
     FM311300 16012KT P6SM SCT050 BKN150
     FM311600 16015G24KT P6SM SCT050
     FM312100 19017G24KT P6SM VCTS SCT050CB BKN080
     FM010000 23009KT P6SM SCT070 BKN150=

USA.gov is the U.S. government's official web portal to all federal, state and local government web resources and services.